Time;durP1;ratioP1;P1;durP2;ratioP2;P2;SDS_P1;SDS_P2;PMS_P1;PMS_P2;Temp;Humidity;BMP_temperature;BMP_pressure;BME280_temperature;BME280_humidity;BME280_pressure;Samples;Min_cycle;Max_cycle;Signal;HPM_P1;HPM_P2
2024/02/01 00:01:33;;;;;;;48.67;16.40;;;;;;;;;;5023870;28;20425;-57
2024/02/01 00:03:58;;;;;;;52.77;17.97;;;;;;;;;;5018928;28;20026;-58
2024/02/01 00:06:23;;;;;;;46.63;14.93;;;;;;;;;;5019329;28;20405;-57
2024/02/01 00:08:48;;;;;;;50.38;16.30;;;;;;;;;;5035020;28;20397;-56
2024/02/01 00:11:13;;;;;;;45.73;16.50;;;;;;;;;;5034269;28;20083;-58
2024/02/01 00:13:38;;;;;;;55.93;17.23;;;;;;;;;;5027629;28;20034;-58
2024/02/01 00:16:04;;;;;;;47.85;16.17;;;;;;;;;;5032395;28;20042;-58
2024/02/01 00:18:29;;;;;;;45.67;16.30;;;;;;;;;;5029240;28;20049;-56
2024/02/01 00:20:54;;;;;;;48.85;15.75;;;;;;;;;;5031001;28;20021;-57
2024/02/01 00:23:19;;;;;;;48.00;16.80;;;;;;;;;;5032791;28;20134;-56
2024/02/01 00:25:44;;;;;;;50.53;16.83;;;;;;;;;;5034165;28;20135;-57
2024/02/01 00:28:09;;;;;;;46.47;15.82;;;;;;;;;;5018587;28;20083;-56
2024/02/01 00:30:35;;;;;;;54.20;17.83;;;;;;;;;;5031983;28;20028;-57
2024/02/01 00:33:00;;;;;;;49.93;17.27;;;;;;;;;;5032358;28;20035;-57
2024/02/01 00:35:25;;;;;;;47.80;15.93;;;;;;;;;;5020097;28;20536;-57
2024/02/01 00:37:50;;;;;;;47.75;17.08;;;;;;;;;;5028491;28;20112;-57
2024/02/01 00:40:15;;;;;;;51.35;15.65;;;;;;;;;;5034731;28;20048;-57
2024/02/01 00:42:40;;;;;;;47.70;15.90;;;;;;;;;;5023887;28;20018;-56
2024/02/01 00:45:06;;;;;;;45.78;16.25;;;;;;;;;;5033528;28;20431;-57
2024/02/01 00:47:31;;;;;;;46.30;15.65;;;;;;;;;;5020846;28;20068;-57
2024/02/01 00:49:56;;;;;;;42.17;15.60;;;;;;;;;;5032966;28;20021;-56
2024/02/01 00:52:21;;;;;;;42.87;15.80;;;;;;;;;;5032406;28;20045;-56
2024/02/01 00:54:47;;;;;;;50.60;15.55;;;;;;;;;;5027132;28;20456;-56
2024/02/01 00:57:12;;;;;;;52.27;16.30;;;;;;;;;;5030770;28;20072;-57
2024/02/01 00:59:37;;;;;;;50.10;15.73;;;;;;;;;;5031787;28;20014;-57
2024/02/01 01:02:02;;;;;;;53.72;16.63;;;;;;;;;;5031295;28;20428;-56
2024/02/01 01:04:28;;;;;;;49.50;16.70;;;;;;;;;;5025458;28;20027;-58
2024/02/01 01:06:54;;;;;;;46.90;15.90;;;;;;;;;;5033654;28;20013;-58
2024/02/01 01:09:19;;;;;;;46.83;16.67;;;;;;;;;;5016189;28;20029;-57
2024/02/01 01:11:44;;;;;;;46.97;16.15;;;;;;;;;;5019565;28;20025;-57
2024/02/01 01:14:09;;;;;;;48.55;16.77;;;;;;;;;;5028244;28;20112;-56
2024/02/01 01:16:34;;;;;;;46.03;16.10;;;;;;;;;;5028174;28;20033;-56
2024/02/01 01:18:59;;;;;;;52.50;18.08;;;;;;;;;;5033775;28;20029;-57
2024/02/01 01:21:24;;;;;;;50.00;16.27;;;;;;;;;;5014805;28;20471;-57
2024/02/01 01:23:50;;;;;;;42.85;14.88;;;;;;;;;;5032489;28;20025;-57
2024/02/01 01:26:21;;;;;;;48.17;15.77;;;;;;;;;;5024775;28;20129;-56
2024/02/01 01:28:47;;;;;;;45.33;15.10;;;;;;;;;;5021607;28;20044;-57
2024/02/01 01:31:12;;;;;;;50.67;17.60;;;;;;;;;;5031380;28;20022;-57
2024/02/01 01:33:37;;;;;;;43.67;16.00;;;;;;;;;;5033304;28;20120;-57
2024/02/01 01:36:02;;;;;;;44.65;15.48;;;;;;;;;;5031411;28;20517;-57
2024/02/01 01:38:27;;;;;;;44.05;14.75;;;;;;;;;;5020144;28;20025;-57
2024/02/01 01:40:52;;;;;;;39.60;14.27;;;;;;;;;;5032799;28;20108;-56
2024/02/01 01:43:18;;;;;;;41.03;14.10;;;;;;;;;;5032249;28;20105;-56
2024/02/01 01:45:43;;;;;;;42.53;14.57;;;;;;;;;;5029681;28;20029;-57
2024/02/01 01:48:08;;;;;;;47.93;16.57;;;;;;;;;;5032550;28;20044;-57
2024/02/01 01:50:33;;;;;;;46.35;15.95;;;;;;;;;;5016902;28;20109;-57
2024/02/01 01:52:59;;;;;;;47.90;15.73;;;;;;;;;;5021514;28;20033;-57
2024/02/01 01:55:25;;;;;;;43.75;14.38;;;;;;;;;;5025374;28;20017;-57
2024/02/01 01:57:50;;;;;;;50.50;17.65;;;;;;;;;;5021248;28;20034;-57
2024/02/01 02:00:17;;;;;;;39.97;15.48;;;;;;;;;;5024598;28;20021;-57
2024/02/01 02:02:42;;;;;;;44.80;15.32;;;;;;;;;;5031360;28;20034;-56
2024/02/01 02:05:08;;;;;;;45.22;16.52;;;;;;;;;;5030762;28;20026;-57
2024/02/01 02:07:33;;;;;;;46.33;15.30;;;;;;;;;;5032469;28;20026;-56
2024/02/01 02:10:00;;;;;;;44.17;15.90;;;;;;;;;;5025544;28;20022;-57
2024/02/01 02:12:25;;;;;;;45.85;16.17;;;;;;;;;;5012739;28;20013;-56
2024/02/01 02:14:58;;;;;;;44.22;15.93;;;;;;;;;;5027904;28;20489;-57
2024/02/01 02:17:25;;;;;;;50.22;18.08;;;;;;;;;;5013134;28;20511;-57
2024/02/01 02:19:50;;;;;;;47.05;16.13;;;;;;;;;;5031196;28;20032;-56
2024/02/01 02:22:15;;;;;;;48.75;17.77;;;;;;;;;;5032098;28;20010;-56
2024/02/01 02:24:41;;;;;;;42.47;16.47;;;;;;;;;;5032892;28;20030;-56
2024/02/01 02:27:06;;;;;;;42.20;14.43;;;;;;;;;;5037471;28;20440;-56
2024/02/01 02:29:31;;;;;;;41.90;15.52;;;;;;;;;;5034937;28;20467;-56
2024/02/01 02:31:56;;;;;;;39.70;14.15;;;;;;;;;;5035265;28;20025;-57
2024/02/01 02:34:22;;;;;;;40.38;14.80;;;;;;;;;;5036472;28;20087;-56
2024/02/01 02:36:47;;;;;;;44.47;16.13;;;;;;;;;;5033145;28;20024;-58
2024/02/01 02:39:14;;;;;;;39.10;14.98;;;;;;;;;;5031826;28;20021;-56
2024/02/01 02:41:39;;;;;;;44.55;14.82;;;;;;;;;;5032222;28;20477;-57
2024/02/01 02:44:06;;;;;;;39.70;15.10;;;;;;;;;;5029497;28;20039;-58
2024/02/01 02:46:32;;;;;;;44.58;15.23;;;;;;;;;;5032105;28;20025;-56
2024/02/01 02:48:57;;;;;;;41.67;15.97;;;;;;;;;;5032468;28;20045;-56
2024/02/01 02:51:22;;;;;;;54.15;17.95;;;;;;;;;;5027224;28;20481;-56
2024/02/01 02:53:47;;;;;;;45.17;16.30;;;;;;;;;;5026817;28;20023;-57
2024/02/01 02:56:12;;;;;;;45.95;15.35;;;;;;;;;;5032096;28;20824;-56
2024/02/01 02:58:39;;;;;;;45.60;17.33;;;;;;;;;;5030296;28;20021;-57
2024/02/01 03:01:08;;;;;;;49.08;17.30;;;;;;;;;;5036537;28;20076;-56
2024/02/01 03:03:33;;;;;;;46.25;16.98;;;;;;;;;;5033261;28;20416;-57
2024/02/01 03:05:58;;;;;;;42.33;16.53;;;;;;;;;;5032277;28;20025;-57
2024/02/01 03:08:23;;;;;;;46.10;16.63;;;;;;;;;;5031830;28;20459;-56
2024/02/01 03:10:50;;;;;;;41.85;15.40;;;;;;;;;;5033610;28;20449;-56
2024/02/01 03:13:16;;;;;;;48.38;17.35;;;;;;;;;;5030567;28;20112;-57
2024/02/01 03:15:41;;;;;;;47.67;15.63;;;;;;;;;;5030099;28;20037;-58
2024/02/01 03:18:10;;;;;;;45.70;17.17;;;;;;;;;;5031131;28;20061;-57
2024/02/01 03:20:35;;;;;;;47.83;17.55;;;;;;;;;;5023042;28;20025;-56
2024/02/01 03:23:01;;;;;;;44.95;17.63;;;;;;;;;;5013077;28;20037;-57
2024/02/01 03:25:28;;;;;;;46.30;16.17;;;;;;;;;;5030052;28;20029;-58
2024/02/01 03:28:00;;;;;;;43.70;16.48;;;;;;;;;;5036032;28;20009;-57
2024/02/01 03:30:26;;;;;;;34.60;12.48;;;;;;;;;;5035412;28;20032;-57
2024/02/01 03:32:51;;;;;;;47.13;18.35;;;;;;;;;;5035596;28;20021;-57
2024/02/01 03:35:16;;;;;;;49.38;17.42;;;;;;;;;;5038574;28;20025;-56
2024/02/01 03:37:41;;;;;;;40.57;15.40;;;;;;;;;;5036489;28;20029;-57
2024/02/01 03:40:07;;;;;;;40.83;15.50;;;;;;;;;;5029024;28;20026;-58
2024/02/01 03:42:32;;;;;;;38.15;14.23;;;;;;;;;;5033935;28;20021;-57
2024/02/01 03:44:57;;;;;;;38.08;14.60;;;;;;;;;;5031085;28;20482;-57
2024/02/01 03:47:23;;;;;;;40.65;14.38;;;;;;;;;;5031018;28;20024;-57
2024/02/01 03:49:48;;;;;;;35.78;14.23;;;;;;;;;;5028265;28;20044;-58
2024/02/01 03:52:20;;;;;;;34.28;13.82;;;;;;;;;;5030733;28;20018;-57
2024/02/01 03:54:45;;;;;;;37.15;14.23;;;;;;;;;;5030728;28;20024;-56
2024/02/01 03:57:14;;;;;;;33.60;12.27;;;;;;;;;;5029879;28;20022;-56
2024/02/01 03:59:41;;;;;;;28.73;11.43;;;;;;;;;;5029538;28;20029;-58
2024/02/01 04:02:13;;;;;;;30.90;11.45;;;;;;;;;;5031168;28;20021;-56
2024/02/01 04:04:39;;;;;;;28.10;11.57;;;;;;;;;;5029086;28;20025;-56
2024/02/01 04:07:04;;;;;;;27.67;11.20;;;;;;;;;;5027811;28;20101;-56
2024/02/01 04:09:29;;;;;;;16.35;6.78;;;;;;;;;;5024242;28;20497;-57
2024/02/01 04:11:54;;;;;;;13.80;5.10;;;;;;;;;;5029749;28;20013;-57
2024/02/01 04:14:19;;;;;;;7.77;2.70;;;;;;;;;;5028308;28;20041;-55
2024/02/01 04:16:45;;;;;;;4.72;2.10;;;;;;;;;;5030657;28;20036;-56
2024/02/01 04:19:12;;;;;;;7.18;2.72;;;;;;;;;;5030946;28;20508;-57
2024/02/01 04:21:37;;;;;;;5.85;2.80;;;;;;;;;;5028983;28;20037;-56
2024/02/01 04:24:03;;;;;;;5.47;2.72;;;;;;;;;;5030078;28;20090;-57
2024/02/01 04:26:29;;;;;;;5.60;2.67;;;;;;;;;;5029522;28;20053;-57
2024/02/01 04:28:54;;;;;;;7.95;2.83;;;;;;;;;;5025406;28;20448;-57
2024/02/01 04:31:20;;;;;;;7.03;2.60;;;;;;;;;;5032327;28;20032;-57
2024/02/01 04:33:46;;;;;;;6.27;2.40;;;;;;;;;;5040336;28;20013;-57
2024/02/01 04:36:11;;;;;;;6.05;2.45;;;;;;;;;;5043708;28;20110;-56
2024/02/01 04:38:36;;;;;;;7.37;2.80;;;;;;;;;;5045860;28;20017;-57
2024/02/01 04:41:06;;;;;;;6.05;2.30;;;;;;;;;;5033922;28;20024;-57
2024/02/01 04:43:31;;;;;;;5.50;2.47;;;;;;;;;;5034138;28;20033;-57
2024/02/01 04:45:56;;;;;;;7.60;2.33;;;;;;;;;;5034485;28;20366;-56
2024/02/01 04:48:22;;;;;;;5.47;2.50;;;;;;;;;;5034666;28;20018;-57
2024/02/01 04:50:49;;;;;;;6.50;2.63;;;;;;;;;;5031271;28;20385;-57
2024/02/01 04:53:14;;;;;;;7.60;2.70;;;;;;;;;;5022386;28;20018;-58
2024/02/01 04:55:39;;;;;;;5.60;2.50;;;;;;;;;;5021119;28;20045;-57
2024/02/01 04:58:05;;;;;;;6.35;2.58;;;;;;;;;;5033317;28;20024;-58
2024/02/01 05:00:30;;;;;;;5.88;2.58;;;;;;;;;;5033625;28;20156;-56
2024/02/01 05:02:55;;;;;;;6.10;2.83;;;;;;;;;;5027357;28;20026;-56
2024/02/01 05:05:20;;;;;;;5.43;2.50;;;;;;;;;;5025085;28;20040;-57
2024/02/01 05:07:45;;;;;;;8.77;3.03;;;;;;;;;;5032859;28;20014;-57
2024/02/01 05:10:12;;;;;;;6.43;2.30;;;;;;;;;;5022184;28;20013;-56
2024/02/01 05:12:37;;;;;;;;;;;;;;;;;;5028149;28;20018;-57
2024/02/01 05:15:07;;;;;;;6.22;2.40;;;;;;;;;;5024733;28;20420;-57
2024/02/01 05:17:33;;;;;;;6.85;2.35;;;;;;;;;;5022652;28;20028;-59
2024/02/01 05:19:59;;;;;;;6.80;2.42;;;;;;;;;;5031857;28;20108;-56
2024/02/01 05:22:24;;;;;;;7.38;2.63;;;;;;;;;;5032035;28;20117;-59
2024/02/01 05:24:49;;;;;;;6.25;2.50;;;;;;;;;;5028191;28;20104;-57
2024/02/01 05:27:14;;;;;;;6.45;2.70;;;;;;;;;;5028744;28;20017;-57
2024/02/01 05:29:40;;;;;;;7.68;3.03;;;;;;;;;;5022635;28;20061;-57
2024/02/01 05:32:06;;;;;;;5.43;2.22;;;;;;;;;;5026001;28;20071;-58
2024/02/01 05:34:31;;;;;;;4.95;2.25;;;;;;;;;;5034006;28;20087;-58
2024/02/01 05:36:56;;;;;;;6.63;2.53;;;;;;;;;;5043328;28;20209;-58
2024/02/01 05:39:24;;;;;;;5.80;2.30;;;;;;;;;;5039274;28;20021;-58
2024/02/01 05:41:53;;;;;;;6.53;2.33;;;;;;;;;;5038976;28;20041;-58
2024/02/01 05:44:19;;;;;;;5.20;2.40;;;;;;;;;;5023583;28;20021;-57
2024/02/01 05:46:48;;;;;;;6.07;2.20;;;;;;;;;;5033259;28;20025;-56
2024/02/01 05:49:18;;;;;;;6.15;2.40;;;;;;;;;;5026337;28;20033;-56
2024/02/01 05:51:43;;;;;;;4.68;2.13;;;;;;;;;;5019711;28;20040;-58
2024/02/01 05:54:08;;;;;;;8.03;2.67;;;;;;;;;;5013885;28;20037;-57
2024/02/01 05:56:33;;;;;;;5.60;2.47;;;;;;;;;;5023236;28;20412;-57
2024/02/01 05:58:58;;;;;;;4.45;2.03;;;;;;;;;;5023940;28;20083;-56
2024/02/01 06:01:24;;;;;;;6.47;1.93;;;;;;;;;;5021301;28;20037;-58
2024/02/01 06:03:50;;;;;;;5.43;2.25;;;;;;;;;;5024514;28;20217;-58
2024/02/01 06:06:15;;;;;;;5.05;2.10;;;;;;;;;;5025989;28;20014;-56
2024/02/01 06:08:40;;;;;;;4.32;2.05;;;;;;;;;;5027310;28;20029;-56
2024/02/01 06:11:05;;;;;;;4.63;1.85;;;;;;;;;;5026529;28;20033;-57
2024/02/01 06:13:30;;;;;;;5.10;2.13;;;;;;;;;;5024868;28;20104;-57
2024/02/01 06:15:56;;;;;;;4.40;1.70;;;;;;;;;;5020592;28;20029;-57
2024/02/01 06:18:21;;;;;;;5.47;1.80;;;;;;;;;;5022793;28;20014;-57
2024/02/01 06:20:46;;;;;;;5.20;1.80;;;;;;;;;;5029127;28;20053;-58
2024/02/01 06:23:11;;;;;;;6.18;2.00;;;;;;;;;;5027805;28;20468;-58
2024/02/01 06:25:38;;;;;;;10.03;2.10;;;;;;;;;;5031563;28;20064;-57
2024/02/01 06:28:03;;;;;;;;;;;;;;;;;;5030258;28;20346;-56
2024/02/01 06:30:29;;;;;;;5.63;2.10;;;;;;;;;;5025190;28;19915;-57
2024/02/01 06:32:54;;;;;;;5.83;1.70;;;;;;;;;;5030680;28;20385;-57
2024/02/01 06:35:22;;;;;;;4.95;1.90;;;;;;;;;;5031930;28;21006;-57
2024/02/01 06:38:04;;;;;;;5.32;1.83;;;;;;;;;;5029797;28;20164;-57
2024/02/01 06:40:48;;;;;;;6.10;1.85;;;;;;;;;;5021682;28;20060;-57
2024/02/01 06:43:31;;;;;;;4.85;2.03;;;;;;;;;;5026879;28;20139;-56
2024/02/01 06:46:01;;;;;;;5.90;1.95;;;;;;;;;;5018807;28;20022;-58
2024/02/01 06:48:40;;;;;;;5.20;2.03;;;;;;;;;;5025213;28;20477;-57
2024/02/01 06:51:20;;;;;;;5.03;1.90;;;;;;;;;;5012338;28;20049;-57
2024/02/01 06:53:54;;;;;;;5.45;2.20;;;;;;;;;;5030610;28;20021;-58
2024/02/01 06:56:38;;;;;;;8.65;1.95;;;;;;;;;;5028611;28;20324;-57
2024/02/01 06:59:21;;;;;;;5.22;2.00;;;;;;;;;;5024988;28;20482;-57
2024/02/01 07:02:01;;;;;;;7.18;2.13;;;;;;;;;;5024759;28;20080;-57
2024/02/01 07:04:41;;;;;;;6.50;2.03;;;;;;;;;;5023200;28;20017;-57
2024/02/01 07:07:26;;;;;;;5.05;1.80;;;;;;;;;;5030650;28;20018;-57
2024/02/01 07:10:13;;;;;;;;;;;;;;;;;;5022200;28;20056;-57
2024/02/01 07:12:42;;;;;;;6.05;1.70;;;;;;;;;;5030758;28;19995;-56
2024/02/01 07:18:06;;;;;;;4.75;2.03;;;;;;;;;;5023825;28;20121;-57
2024/02/01 07:20:45;;;;;;;4.60;1.70;;;;;;;;;;5029297;28;20108;-56
2024/02/01 07:25:48;;;;;;;5.85;2.03;;;;;;;;;;5029003;28;20087;-56
2024/02/01 07:58:21;;;;;;;;;;;;;;;;;;5020363;28;20094;-56
2024/02/01 08:00:51;;;;;;;5.30;1.98;;;;;;;;;;5026643;28;19908;-57
2024/02/01 08:03:23;;;;;;;4.50;1.75;;;;;;;;;;5027937;28;20430;-58
2024/02/01 08:08:36;;;;;;;4.75;1.50;;;;;;;;;;5021050;28;20101;-58
2024/02/01 08:11:01;;;;;;;3.87;1.50;;;;;;;;;;5021840;28;20420;-56
2024/02/01 08:13:26;;;;;;;4.40;1.70;;;;;;;;;;5028750;28;20564;-57
2024/02/01 08:16:02;;;;;;;4.90;1.63;;;;;;;;;;5032400;28;20022;-57
2024/02/01 08:18:34;;;;;;;4.88;1.70;;;;;;;;;;5029325;28;20025;-56
2024/02/01 08:20:59;;;;;;;4.13;1.50;;;;;;;;;;5032035;28;20026;-57
2024/02/01 08:23:25;;;;;;;6.30;1.80;;;;;;;;;;5035170;28;20035;-57
2024/02/01 08:25:51;;;;;;;7.53;1.67;;;;;;;;;;5036309;28;20017;-57
2024/02/01 08:28:17;;;;;;;4.30;1.67;;;;;;;;;;5036650;28;20021;-57
2024/02/01 08:30:42;;;;;;;4.82;1.73;;;;;;;;;;5038042;28;20025;-56
2024/02/01 08:33:15;;;;;;;4.53;1.70;;;;;;;;;;5036632;28;20057;-56
2024/02/01 08:35:40;;;;;;;;;;;;;;;;;;5036216;28;20027;-57
2024/02/01 08:38:06;;;;;;;4.40;1.60;;;;;;;;;;5036269;28;19996;-57
2024/02/01 08:40:32;;;;;;;5.25;1.77;;;;;;;;;;5036883;28;20029;-58
2024/02/01 08:42:57;;;;;;;5.60;1.80;;;;;;;;;;5036034;28;20048;-57
2024/02/01 08:45:23;;;;;;;6.18;1.85;;;;;;;;;;5035548;28;20026;-58
2024/02/01 08:47:48;;;;;;;4.10;1.60;;;;;;;;;;5035061;28;20394;-56
2024/02/01 08:50:13;;;;;;;4.70;1.83;;;;;;;;;;5029449;28;20025;-56
2024/02/01 08:52:45;;;;;;;4.40;1.80;;;;;;;;;;5032773;28;20026;-56
2024/02/01 08:55:10;;;;;;;5.47;1.83;;;;;;;;;;5033960;28;20092;-56
2024/02/01 08:57:38;;;;;;;4.50;1.70;;;;;;;;;;5030259;28;20449;-57
2024/02/01 09:00:21;;;;;;;6.78;1.75;;;;;;;;;;5031212;28;20060;-56
2024/02/01 09:02:46;;;;;;;4.30;1.50;;;;;;;;;;5034413;28;20024;-57
2024/02/01 09:05:19;;;;;;;4.40;1.80;;;;;;;;;;5028180;28;20030;-57
2024/02/01 09:07:44;;;;;;;4.60;1.90;;;;;;;;;;5033361;28;20028;-57
2024/02/01 09:10:09;;;;;;;6.20;1.77;;;;;;;;;;5030746;28;20100;-57
2024/02/01 09:12:34;;;;;;;4.73;1.93;;;;;;;;;;5032666;28;20018;-57
2024/02/01 09:14:59;;;;;;;4.53;1.80;;;;;;;;;;5033196;28;20017;-57
2024/02/01 09:17:24;;;;;;;5.05;2.00;;;;;;;;;;5034314;28;20044;-57
2024/02/01 09:19:50;;;;;;;4.97;1.40;;;;;;;;;;5032908;28;20025;-56
2024/02/01 09:22:15;;;;;;;4.47;2.00;;;;;;;;;;5033199;28;20045;-56
2024/02/01 09:24:40;;;;;;;3.53;1.47;;;;;;;;;;5030521;28;20075;-57
2024/02/01 09:27:05;;;;;;;4.65;1.77;;;;;;;;;;5033182;28;20108;-57
2024/02/01 09:29:34;;;;;;;5.47;1.83;;;;;;;;;;5032632;28;20128;-58
2024/02/01 09:32:00;;;;;;;4.88;2.00;;;;;;;;;;5034060;28;20017;-56
2024/02/01 09:34:25;;;;;;;5.25;2.30;;;;;;;;;;5032872;28;20094;-57
2024/02/01 09:36:50;;;;;;;5.18;1.98;;;;;;;;;;5034465;28;20025;-57
2024/02/01 09:39:16;;;;;;;5.45;1.90;;;;;;;;;;5033805;28;20051;-57
2024/02/01 09:41:41;;;;;;;5.90;1.83;;;;;;;;;;5032923;28;20427;-57
2024/02/01 09:44:06;;;;;;;4.13;1.67;;;;;;;;;;5032660;28;20033;-58
2024/02/01 09:46:34;;;;;;;4.93;1.50;;;;;;;;;;5033123;28;20531;-57
2024/02/01 09:49:00;;;;;;;8.60;2.17;;;;;;;;;;5033301;28;20112;-57
2024/02/01 09:51:26;;;;;;;3.80;1.90;;;;;;;;;;5032480;28;20100;-56
2024/02/01 09:53:51;;;;;;;6.05;2.08;;;;;;;;;;5032298;28;20507;-56
2024/02/01 09:56:17;;;;;;;5.50;2.07;;;;;;;;;;5031336;28;20033;-57
2024/02/01 09:58:43;;;;;;;4.88;1.90;;;;;;;;;;5033270;28;20097;-57
2024/02/01 10:01:10;;;;;;;6.05;2.00;;;;;;;;;;5033016;28;20029;-56
2024/02/01 10:03:39;;;;;;;3.90;1.80;;;;;;;;;;5029544;28;20030;-57
2024/02/01 10:06:05;;;;;;;4.15;1.80;;;;;;;;;;5029637;28;20018;-56
2024/02/01 10:08:33;;;;;;;5.00;2.20;;;;;;;;;;5031031;28;20397;-58
2024/02/01 10:11:00;;;;;;;4.78;2.00;;;;;;;;;;5029435;28;20080;-57
2024/02/01 10:13:30;;;;;;;;;;;;;;;;;;5027989;28;20021;-58
2024/02/01 10:15:56;;;;;;;4.45;2.10;;;;;;;;;;5030705;28;19909;-57
2024/02/01 10:18:21;;;;;;;4.80;2.20;;;;;;;;;;5032812;28;20029;-56
2024/02/01 10:20:53;;;;;;;6.50;2.63;;;;;;;;;;5033730;28;20041;-57
2024/02/01 10:23:21;;;;;;;5.38;2.50;;;;;;;;;;5030205;28;20079;-57
2024/02/01 10:25:48;;;;;;;5.15;2.30;;;;;;;;;;5031478;28;20026;-57
2024/02/01 10:28:17;;;;;;;4.43;2.08;;;;;;;;;;5032404;28;20393;-58
2024/02/01 10:30:43;;;;;;;5.03;2.35;;;;;;;;;;5032788;28;20014;-57
2024/02/01 10:33:12;;;;;;;5.55;2.30;;;;;;;;;;5032899;28;20076;-56
2024/02/01 10:35:37;;;;;;;5.20;2.25;;;;;;;;;;5031633;28;20030;-57
2024/02/01 10:38:12;;;;;;;4.53;2.07;;;;;;;;;;5030782;28;20074;-57
2024/02/01 10:40:47;;;;;;;4.57;2.35;;;;;;;;;;5031532;28;20013;-58
2024/02/01 10:43:17;;;;;;;5.10;2.00;;;;;;;;;;5033103;28;20017;-57
2024/02/01 10:45:42;;;;;;;5.47;2.40;;;;;;;;;;5032518;28;20017;-57
2024/02/01 10:48:09;;;;;;;5.22;2.28;;;;;;;;;;5031677;28;20025;-57
2024/02/01 10:50:36;;;;;;;6.63;2.28;;;;;;;;;;5031103;28;20070;-56
2024/02/01 10:53:02;;;;;;;3.97;1.88;;;;;;;;;;5030583;28;20478;-56
2024/02/01 10:55:27;;;;;;;4.85;2.40;;;;;;;;;;5029813;28;20063;-56
2024/02/01 10:57:53;;;;;;;6.07;2.60;;;;;;;;;;5030543;28;20172;-57
2024/02/01 11:00:21;;;;;;;5.35;2.35;;;;;;;;;;5027296;28;20025;-56
2024/02/01 11:02:53;;;;;;;6.60;2.20;;;;;;;;;;5031138;28;20009;-56
2024/02/01 11:05:19;;;;;;;4.72;2.38;;;;;;;;;;5030993;28;20069;-57
2024/02/01 11:07:44;;;;;;;7.17;2.40;;;;;;;;;;5031184;28;20453;-56
2024/02/01 11:10:13;;;;;;;4.53;2.30;;;;;;;;;;5029005;28;20033;-57
2024/02/01 11:12:38;;;;;;;5.50;2.00;;;;;;;;;;5031393;28;20505;-57
2024/02/01 11:15:05;;;;;;;4.30;1.90;;;;;;;;;;5030609;28;20112;-56
2024/02/01 11:17:31;;;;;;;4.88;2.20;;;;;;;;;;5030780;28;20108;-56
2024/02/01 11:19:56;;;;;;;4.40;1.85;;;;;;;;;;5031203;28;20037;-56
2024/02/01 11:22:21;;;;;;;5.07;1.98;;;;;;;;;;5031179;28;20489;-57
2024/02/01 11:24:46;;;;;;;5.43;2.23;;;;;;;;;;5030260;28;20060;-56
2024/02/01 11:27:18;;;;;;;5.47;2.20;;;;;;;;;;5031510;28;20500;-57
2024/02/01 11:29:45;;;;;;;4.45;2.17;;;;;;;;;;5030399;28;20028;-57
2024/02/01 11:32:13;;;;;;;4.15;1.83;;;;;;;;;;5029892;28;20024;-56
2024/02/01 11:34:49;;;;;;;5.43;2.33;;;;;;;;;;5028690;28;20025;-56
2024/02/01 11:37:14;;;;;;;4.10;1.88;;;;;;;;;;5030826;28;20597;-56
2024/02/01 11:39:42;;;;;;;5.00;1.70;;;;;;;;;;5026770;28;20051;-57
2024/02/01 11:42:08;;;;;;;4.88;1.42;;;;;;;;;;5030611;28;20029;-57
2024/02/01 11:44:33;;;;;;;5.13;1.60;;;;;;;;;;5031491;28;20022;-57
2024/02/01 11:46:58;;;;;;;3.90;1.40;;;;;;;;;;5029984;28;20505;-56
2024/02/01 11:49:25;;;;;;;3.30;1.30;;;;;;;;;;5029706;28;20100;-57
2024/02/01 11:51:50;;;;;;;;;;;;;;;;;;5030854;28;20213;-56
2024/02/01 11:54:15;;;;;;;3.40;1.23;;;;;;;;;;5031443;28;19928;-57
2024/02/01 11:56:43;;;;;;;3.97;1.20;;;;;;;;;;5030761;28;20119;-57
2024/02/01 11:59:08;;;;;;;4.63;1.33;;;;;;;;;;5030802;28;20037;-56
2024/02/01 12:01:33;;;;;;;3.05;1.08;;;;;;;;;;5030552;28;20395;-56
2024/02/01 12:03:59;;;;;;;7.20;1.27;;;;;;;;;;5027647;28;20021;-57
2024/02/01 12:06:24;;;;;;;3.83;1.15;;;;;;;;;;5030620;28;20435;-56
2024/02/01 12:08:53;;;;;;;3.93;1.20;;;;;;;;;;5022749;28;20367;-56
2024/02/01 12:11:25;;;;;;;3.53;1.30;;;;;;;;;;5009873;28;20018;-57
2024/02/01 12:13:51;;;;;;;4.05;1.50;;;;;;;;;;5027061;28;20030;-57
2024/02/01 12:16:26;;;;;;;3.78;1.40;;;;;;;;;;5030556;28;20021;-57
2024/02/01 12:18:54;;;;;;;4.93;1.40;;;;;;;;;;5023072;28;20393;-56
2024/02/01 12:21:26;;;;;;;4.53;1.20;;;;;;;;;;5030759;28;20024;-56
2024/02/01 12:23:52;;;;;;;6.43;1.30;;;;;;;;;;5007527;28;20477;-56
2024/02/01 12:26:18;;;;;;;7.45;1.20;;;;;;;;;;5029347;28;20101;-57
2024/02/01 12:28:44;;;;;;;5.43;1.00;;;;;;;;;;5030056;28;20048;-62
2024/02/01 12:31:10;;;;;;;4.55;1.20;;;;;;;;;;5030270;28;20026;-56
2024/02/01 12:33:39;;;;;;;5.68;1.65;;;;;;;;;;5030097;28;20041;-57
2024/02/01 12:36:05;;;;;;;4.45;1.02;;;;;;;;;;5028446;28;20026;-57
2024/02/01 12:38:40;;;;;;;4.32;1.08;;;;;;;;;;5029391;28;20067;-56
2024/02/01 12:41:06;;;;;;;3.50;1.02;;;;;;;;;;5027183;28;20418;-56
2024/02/01 12:43:31;;;;;;;2.72;0.95;;;;;;;;;;5030026;28;20017;-57
2024/02/01 12:45:58;;;;;;;4.88;1.20;;;;;;;;;;5030277;28;20018;-57
2024/02/01 12:48:23;;;;;;;6.28;1.05;;;;;;;;;;5030352;28;20184;-57
2024/02/01 12:50:48;;;;;;;6.37;1.20;;;;;;;;;;5030554;28;20022;-57
2024/02/01 12:53:14;;;;;;;5.88;1.02;;;;;;;;;;5028697;28;20116;-57
2024/02/01 12:55:39;;;;;;;7.63;1.20;;;;;;;;;;5027241;28;20022;-57
2024/02/01 12:58:04;;;;;;;5.00;1.08;;;;;;;;;;5025914;28;20025;-57
2024/02/01 13:00:29;;;;;;;4.18;1.10;;;;;;;;;;5030204;28;20010;-56
2024/02/01 13:02:56;;;;;;;8.32;1.10;;;;;;;;;;5029830;28;20036;-56
2024/02/01 13:05:21;;;;;;;6.40;1.52;;;;;;;;;;5031180;28;20021;-56
2024/02/01 13:07:46;;;;;;;5.90;1.20;;;;;;;;;;5031492;28;20103;-58
2024/02/01 13:10:15;;;;;;;7.50;1.43;;;;;;;;;;5033775;28;20377;-56
2024/02/01 13:12:54;;;;;;;4.75;1.10;;;;;;;;;;5031232;28;20014;-56
2024/02/01 13:15:23;;;;;;;6.10;1.92;;;;;;;;;;5033290;28;20121;-57
2024/02/01 13:17:49;;;;;;;5.82;0.95;;;;;;;;;;5034091;28;20022;-58
2024/02/01 13:20:21;;;;;;;6.28;1.13;;;;;;;;;;5033322;28;20037;-59
2024/02/01 13:22:47;;;;;;;6.22;1.20;;;;;;;;;;5032293;28;20069;-58
2024/02/01 13:25:18;;;;;;;7.78;1.30;;;;;;;;;;5034014;28;20025;-57
2024/02/01 13:27:44;;;;;;;5.47;1.20;;;;;;;;;;5028606;28;20025;-57
2024/02/01 13:30:09;;;;;;;7.90;1.92;;;;;;;;;;5026820;28;20048;-58
2024/02/01 13:32:35;;;;;;;7.57;1.20;;;;;;;;;;5033595;28;20005;-58
2024/02/01 13:35:00;;;;;;;8.70;1.35;;;;;;;;;;5026064;28;20037;-57
2024/02/01 13:37:26;;;;;;;4.37;1.23;;;;;;;;;;5031603;28;20481;-56
2024/02/01 13:39:52;;;;;;;7.32;1.85;;;;;;;;;;5027948;28;20028;-57
2024/02/01 13:42:17;;;;;;;7.30;1.88;;;;;;;;;;5029497;28;20021;-58
2024/02/01 13:44:43;;;;;;;5.70;1.17;;;;;;;;;;5031831;28;20087;-56
2024/02/01 13:47:08;;;;;;;9.20;1.67;;;;;;;;;;5031433;28;20067;-56
2024/02/01 13:49:34;;;;;;;5.20;1.67;;;;;;;;;;5040832;28;20304;-57
2024/02/01 13:51:59;;;;;;;5.90;1.33;;;;;;;;;;5031907;28;20053;-56
2024/02/01 13:54:24;;;;;;;7.72;1.52;;;;;;;;;;5038940;28;20025;-56
2024/02/01 13:56:49;;;;;;;5.00;1.50;;;;;;;;;;5033390;28;20429;-57
2024/02/01 13:59:14;;;;;;;7.00;1.50;;;;;;;;;;5033375;28;20029;-58
2024/02/01 14:01:40;;;;;;;6.60;1.60;;;;;;;;;;5031569;28;20053;-56
2024/02/01 14:04:06;;;;;;;7.93;1.42;;;;;;;;;;5032670;28;20014;-57
2024/02/01 14:06:31;;;;;;;9.25;1.60;;;;;;;;;;5037409;28;20019;-56
2024/02/01 14:08:56;;;;;;;5.22;1.40;;;;;;;;;;5032503;28;20662;-56
2024/02/01 14:11:22;;;;;;;5.88;1.25;;;;;;;;;;5032592;28;20481;-57
2024/02/01 14:13:47;;;;;;;6.45;1.40;;;;;;;;;;5032411;28;20212;-57
2024/02/01 14:16:12;;;;;;;5.47;1.30;;;;;;;;;;5034389;28;20045;-58
2024/02/01 14:18:38;;;;;;;9.10;1.73;;;;;;;;;;5027289;28;20471;-57
2024/02/01 14:21:03;;;;;;;8.50;1.27;;;;;;;;;;5030556;28;20021;-58
2024/02/01 14:23:30;;;;;;;6.22;1.25;;;;;;;;;;5027747;28;20022;-58
2024/02/01 14:25:57;;;;;;;6.95;1.30;;;;;;;;;;5030135;28;20097;-58
2024/02/01 14:28:22;;;;;;;6.13;1.20;;;;;;;;;;5029219;28;20124;-57
2024/02/01 14:30:47;;;;;;;6.40;0.93;;;;;;;;;;5031783;28;20533;-56
2024/02/01 14:33:13;;;;;;;6.32;1.00;;;;;;;;;;5030894;28;20470;-56
2024/02/01 14:35:38;;;;;;;9.88;1.30;;;;;;;;;;5035357;28;20473;-56
2024/02/01 14:38:03;;;;;;;4.55;1.10;;;;;;;;;;5033484;28;20029;-57
2024/02/01 14:40:28;;;;;;;9.03;1.93;;;;;;;;;;5031156;28;20018;-58
2024/02/01 14:42:54;;;;;;;5.70;1.10;;;;;;;;;;5025577;28;20846;-56
2024/02/01 14:45:19;;;;;;;4.82;1.02;;;;;;;;;;5032337;28;20018;-56
2024/02/01 14:47:44;;;;;;;6.68;0.90;;;;;;;;;;5029307;28;20088;-57
2024/02/01 14:50:10;;;;;;;6.80;0.70;;;;;;;;;;5030790;28;20095;-57
2024/02/01 14:52:35;;;;;;;7.50;1.00;;;;;;;;;;5031557;28;20071;-58
2024/02/01 14:55:00;;;;;;;6.38;1.05;;;;;;;;;;5029165;28;20021;-56
2024/02/01 14:57:25;;;;;;;4.93;0.80;;;;;;;;;;5032129;28;20088;-56
2024/02/01 14:59:50;;;;;;;11.35;1.08;;;;;;;;;;5032291;28;20082;-57
2024/02/01 15:02:15;;;;;;;6.90;0.70;;;;;;;;;;5031063;28;20029;-56
2024/02/01 15:04:41;;;;;;;10.23;0.93;;;;;;;;;;5032080;28;20029;-57
2024/02/01 15:07:06;;;;;;;5.05;0.68;;;;;;;;;;5029492;28;20075;-56
2024/02/01 15:09:31;;;;;;;6.55;0.82;;;;;;;;;;5027910;28;20032;-57
2024/02/01 15:11:59;;;;;;;3.83;0.60;;;;;;;;;;5028690;28;20028;-56
2024/02/01 15:14:26;;;;;;;4.65;0.80;;;;;;;;;;5030133;28;20515;-56